createdAt,value
2022-12-18T00:01:16.490Z,37.60
2022-12-18T00:03:44.715Z,37.10
2022-12-18T00:06:12.603Z,35.97
2022-12-18T00:11:07.904Z,36.83
2022-12-18T00:13:35.844Z,37.10
2022-12-18T00:16:05.826Z,35.58
2022-12-18T00:18:33.590Z,38.05
2022-12-18T00:21:00.962Z,38.50
2022-12-18T00:23:28.864Z,37.72
2022-12-18T00:25:56.283Z,36.92
2022-12-18T00:30:52.313Z,34.85
2022-12-18T00:33:21.000Z,37.13
2022-12-18T00:35:48.395Z,37.78
2022-12-18T00:40:44.333Z,33.92
2022-12-18T00:43:12.748Z,34.95
2022-12-18T00:45:40.162Z,35.40
2022-12-18T00:48:08.081Z,36.22
2022-12-18T00:50:37.702Z,35.90
2022-12-18T00:53:05.108Z,37.90
2022-12-18T00:57:59.649Z,34.88
2022-12-18T01:02:54.366Z,35.42
2022-12-18T01:05:21.795Z,36.72
2022-12-18T01:10:17.755Z,34.85
2022-12-18T01:12:45.572Z,35.40
2022-12-18T01:15:14.546Z,34.97
2022-12-18T01:17:41.935Z,36.33
2022-12-18T01:22:36.915Z,35.53
2022-12-18T01:25:05.587Z,37.33
2022-12-18T01:27:35.427Z,36.45
2022-12-18T01:30:05.354Z,36.92
2022-12-18T01:32:34.044Z,37.05
2022-12-18T01:35:03.311Z,38.47
2022-12-18T01:39:57.958Z,34.72
2022-12-18T01:45:08.693Z,33.05
2022-12-18T01:47:40.029Z,34.38
2022-12-18T01:50:09.780Z,36.55
2022-12-18T01:52:38.028Z,36.72
2022-12-18T01:55:07.933Z,39.10
2022-12-18T01:57:35.623Z,37.08
2022-12-18T02:00:05.950Z,35.92
2022-12-18T02:02:49.588Z,38.15
2022-12-18T02:05:20.944Z,36.63
2022-12-18T02:07:53.597Z,38.88
2022-12-18T02:10:24.208Z,33.90
2022-12-18T02:12:56.163Z,38.28
2022-12-18T02:15:27.951Z,36.45
2022-12-18T02:17:59.380Z,36.05
2022-12-18T02:20:30.481Z,34.50
2022-12-18T02:23:06.146Z,33.55
2022-12-18T02:25:39.958Z,33.70
2022-12-18T02:28:11.559Z,37.25
2022-12-18T02:30:39.643Z,35.08
2022-12-18T02:33:11.768Z,36.10
2022-12-18T02:35:40.771Z,37.45
2022-12-18T02:38:10.302Z,36.20
2022-12-18T02:40:42.180Z,39.15
2022-12-18T02:43:13.044Z,33.85
2022-12-18T02:45:48.301Z,38.88
2022-12-18T02:48:16.701Z,34.85
2022-12-18T02:50:47.335Z,34.05
2022-12-18T02:53:19.274Z,37.13
2022-12-18T02:55:53.852Z,35.28
2022-12-18T02:58:35.156Z,37.00
2022-12-18T03:01:15.798Z,35.70
2022-12-18T03:03:48.522Z,34.25
2022-12-18T03:06:18.785Z,34.88
2022-12-18T03:08:50.609Z,33.55
2022-12-18T03:11:38.679Z,35.13
2022-12-18T03:14:11.578Z,35.65
2022-12-18T03:16:39.545Z,34.53
2022-12-18T03:19:08.983Z,36.97
2022-12-18T03:21:39.287Z,35.20
2022-12-18T03:24:09.925Z,34.90
2022-12-18T03:26:39.556Z,33.90
2022-12-18T03:29:13.935Z,34.47
2022-12-18T03:31:43.078Z,33.00
2022-12-18T03:34:14.510Z,35.13
2022-12-18T03:36:48.522Z,33.47
2022-12-18T03:39:17.895Z,33.88
2022-12-18T03:41:53.567Z,34.35
2022-12-18T03:44:53.489Z,34.50
2022-12-18T03:47:24.023Z,33.58
2022-12-18T03:50:09.584Z,31.77
2022-12-18T03:52:54.839Z,33.50
2022-12-18T03:55:23.841Z,32.20
2022-12-18T03:58:00.049Z,33.63
2022-12-18T04:00:33.917Z,32.83
2022-12-18T04:03:14.291Z,34.83
2022-12-18T04:05:46.793Z,31.67
2022-12-18T04:08:16.066Z,35.28
2022-12-18T04:10:52.422Z,30.90
2022-12-18T04:13:23.726Z,33.95
2022-12-18T04:15:52.962Z,35.00
2022-12-18T04:18:21.274Z,34.63
2022-12-18T04:20:51.282Z,31.92
2022-12-18T04:23:19.088Z,34.03
2022-12-18T04:25:47.245Z,33.10
2022-12-18T04:28:19.781Z,32.65
2022-12-18T04:30:47.680Z,33.47
2022-12-18T04:33:16.671Z,33.78
2022-12-18T04:35:44.042Z,35.35
2022-12-18T04:40:45.497Z,32.85
2022-12-18T04:43:24.303Z,33.40
2022-12-18T04:45:51.828Z,32.33
2022-12-18T04:48:21.152Z,34.97
2022-12-18T04:50:50.926Z,33.33
2022-12-18T04:53:21.196Z,31.85
2022-12-18T04:55:48.585Z,34.33
2022-12-18T05:00:43.310Z,31.80
2022-12-18T05:05:41.301Z,31.17
2022-12-18T05:08:08.655Z,31.15
2022-12-18T05:13:06.439Z,30.83
2022-12-18T05:18:02.123Z,29.60
2022-12-18T05:20:30.070Z,32.05
2022-12-18T05:22:59.017Z,33.03
2022-12-18T05:25:29.615Z,33.05
2022-12-18T05:27:57.327Z,32.72
2022-12-18T05:30:27.397Z,30.85
2022-12-18T05:32:57.792Z,30.45
2022-12-18T05:35:27.245Z,30.75
2022-12-18T05:37:54.828Z,31.95
2022-12-18T05:42:53.575Z,31.88
2022-12-18T05:45:21.278Z,29.50
2022-12-18T05:47:51.654Z,30.77
2022-12-18T05:50:21.937Z,30.83
2022-12-18T05:52:49.416Z,31.15
2022-12-18T05:55:16.911Z,32.08
2022-12-18T05:57:44.387Z,32.28
2022-12-18T06:00:22.655Z,30.10
2022-12-18T06:02:50.131Z,29.83
2022-12-18T06:05:17.651Z,29.35
2022-12-18T06:07:50.012Z,29.00
2022-12-18T06:10:19.801Z,30.17
2022-12-18T06:12:47.381Z,30.67
2022-12-18T06:15:18.118Z,30.20
2022-12-18T06:17:45.694Z,30.98
2022-12-18T06:20:13.855Z,30.25
2022-12-18T06:22:41.351Z,30.88
2022-12-18T06:25:11.443Z,32.28
2022-12-18T06:27:39.251Z,31.80
2022-12-18T06:30:07.166Z,27.90
2022-12-18T06:32:35.927Z,30.77
2022-12-18T06:35:03.497Z,29.17
2022-12-18T06:37:32.478Z,29.65
2022-12-18T06:40:00.146Z,27.35
2022-12-18T06:42:27.531Z,30.25
2022-12-18T06:47:23.635Z,26.40
2022-12-18T06:49:54.900Z,28.38
2022-12-18T06:52:22.493Z,30.05
2022-12-18T06:54:51.701Z,28.27
2022-12-18T06:57:19.061Z,29.40
2022-12-18T07:02:15.842Z,26.30
2022-12-18T07:04:43.355Z,26.45
2022-12-18T07:09:39.638Z,27.92
2022-12-18T07:12:07.745Z,26.23
2022-12-18T07:14:35.338Z,28.50
2022-12-18T07:17:04.214Z,29.00
2022-12-18T07:19:34.787Z,29.15
2022-12-18T07:22:03.507Z,26.50
2022-12-18T07:24:32.000Z,26.80
2022-12-18T07:27:00.901Z,28.13
2022-12-18T07:29:28.267Z,28.27
2022-12-18T07:34:23.202Z,27.50
2022-12-18T07:36:50.562Z,24.85
2022-12-18T07:39:20.328Z,25.10
2022-12-18T07:44:38.111Z,23.13
2022-12-18T07:47:09.164Z,23.25
2022-12-18T07:49:41.507Z,24.40
2022-12-18T07:52:10.348Z,23.98
2022-12-18T07:54:37.842Z,23.02
2022-12-18T07:57:12.818Z,21.85
2022-12-18T07:59:50.243Z,22.75
2022-12-18T08:02:19.348Z,21.83
2022-12-18T08:04:52.485Z,22.30
2022-12-18T08:07:19.999Z,21.08
2022-12-18T08:12:18.086Z,20.40
2022-12-18T08:14:45.505Z,21.02
2022-12-18T08:19:43.239Z,22.50
2022-12-18T08:22:10.602Z,20.45
2022-12-18T08:24:37.965Z,19.60
2022-12-18T08:29:55.140Z,20.30
2022-12-18T08:32:22.622Z,19.77
2022-12-18T08:34:54.236Z,21.17
2022-12-18T08:37:24.733Z,19.67
2022-12-18T08:39:53.399Z,20.67
2022-12-18T08:42:40.031Z,20.63
2022-12-18T08:45:08.083Z,21.00
2022-12-18T08:47:37.495Z,21.23
2022-12-18T08:50:07.057Z,21.45
2022-12-18T08:52:35.896Z,17.35
2022-12-18T08:55:03.324Z,22.42
2022-12-18T08:57:30.670Z,20.95
2022-12-18T09:00:01.115Z,20.20
2022-12-18T09:02:32.106Z,16.67
2022-12-18T09:04:59.680Z,17.02
2022-12-18T09:07:31.728Z,16.15
2022-12-18T09:10:01.972Z,17.95
2022-12-18T09:12:29.403Z,16.23
2022-12-18T09:14:57.334Z,16.73
2022-12-18T09:17:27.948Z,15.73
2022-12-18T09:19:55.406Z,16.15
2022-12-18T09:22:22.962Z,15.43
2022-12-18T09:29:48.690Z,14.25
2022-12-18T09:32:22.169Z,15.23
2022-12-18T09:34:50.159Z,15.65
2022-12-18T09:37:19.970Z,13.77
2022-12-18T09:39:47.978Z,14.18
2022-12-18T09:42:20.639Z,14.15
2022-12-18T09:44:51.291Z,16.23
2022-12-18T09:47:21.426Z,15.43
2022-12-18T09:49:50.565Z,15.35
2022-12-18T09:52:21.202Z,16.05
2022-12-18T09:54:53.827Z,15.23
2022-12-18T09:57:22.273Z,14.88
2022-12-18T09:59:53.799Z,14.65
2022-12-18T10:02:24.760Z,14.98
2022-12-18T10:05:02.223Z,15.20
2022-12-18T10:07:34.107Z,15.23
2022-12-18T10:10:04.887Z,16.95
2022-12-18T10:12:34.765Z,14.75
2022-12-18T10:15:08.947Z,13.95
2022-12-18T10:17:49.026Z,13.52
2022-12-18T10:20:19.420Z,13.75
2022-12-18T10:22:58.993Z,14.40
2022-12-18T10:25:28.135Z,16.17
2022-12-18T10:27:59.281Z,15.82
2022-12-18T10:30:28.339Z,16.65
2022-12-18T10:33:04.947Z,20.23
2022-12-18T10:35:34.199Z,14.50
2022-12-18T10:38:02.492Z,14.70
2022-12-18T10:40:36.092Z,14.18
2022-12-18T10:43:13.242Z,13.13
2022-12-18T10:45:46.413Z,12.45
2022-12-18T10:48:20.056Z,14.05
2022-12-18T10:51:10.205Z,13.77
2022-12-18T10:53:39.406Z,13.15
2022-12-18T10:56:09.709Z,14.43
2022-12-18T10:58:42.624Z,14.10
2022-12-18T11:01:12.774Z,13.57
2022-12-18T11:03:41.204Z,14.10
2022-12-18T11:06:12.391Z,13.52
2022-12-18T11:08:42.758Z,13.57
2022-12-18T11:11:18.128Z,13.38
2022-12-18T11:13:51.623Z,13.23
2022-12-18T11:16:22.045Z,14.10
2022-12-18T11:18:51.131Z,13.13
2022-12-18T11:21:18.551Z,13.02
2022-12-18T11:23:49.050Z,12.60
2022-12-18T11:26:16.439Z,12.48
2022-12-18T11:28:48.499Z,13.82
2022-12-18T11:31:20.832Z,12.95
2022-12-18T11:34:19.851Z,13.35
2022-12-18T11:36:40.746Z,13.32
2022-12-18T11:39:12.958Z,13.25
2022-12-18T11:42:01.059Z,12.70
2022-12-18T11:44:30.011Z,13.10
2022-12-18T11:46:59.640Z,11.63
2022-12-18T11:49:30.493Z,12.02
2022-12-18T11:52:01.571Z,13.45
2022-12-18T11:54:31.139Z,12.18
2022-12-18T11:57:05.024Z,11.93
2022-12-18T11:59:35.787Z,11.57
2022-12-18T12:02:12.637Z,12.60
2022-12-18T12:04:47.404Z,11.18
2022-12-18T12:07:22.855Z,11.50
2022-12-18T12:09:53.799Z,11.15
2022-12-18T12:12:48.640Z,10.93
2022-12-18T12:15:21.271Z,11.52
2022-12-18T12:17:55.310Z,15.07
2022-12-18T12:20:34.770Z,13.25
2022-12-18T12:23:08.106Z,11.02
2022-12-18T12:25:41.817Z,10.10
2022-12-18T12:28:16.248Z,10.50
2022-12-18T12:30:51.799Z,10.45
2022-12-18T12:33:30.792Z,11.63
2022-12-18T12:36:04.071Z,11.82
2022-12-18T12:38:33.438Z,12.10
2022-12-18T12:41:06.079Z,10.55
2022-12-18T12:43:43.323Z,11.32
2022-12-18T12:46:19.952Z,11.13
2022-12-18T12:48:49.872Z,13.13
2022-12-18T12:51:23.119Z,12.30
2022-12-18T12:53:50.945Z,11.35
2022-12-18T12:56:21.206Z,11.73
2022-12-18T12:58:58.390Z,11.13
2022-12-18T13:01:30.066Z,11.82
2022-12-18T13:04:02.799Z,11.40
2022-12-18T13:06:44.563Z,10.85
2022-12-18T13:09:12.613Z,11.68
2022-12-18T13:12:00.605Z,11.43
2022-12-18T13:14:31.173Z,12.75
2022-12-18T13:17:13.456Z,12.25
2022-12-18T13:19:43.291Z,11.82
2022-12-18T13:22:28.307Z,11.82
2022-12-18T13:24:55.958Z,11.43
2022-12-18T13:27:42.223Z,12.30
2022-12-18T13:30:24.567Z,12.93
2022-12-18T13:33:12.682Z,12.65
2022-12-18T13:35:42.201Z,12.85
2022-12-18T13:38:23.181Z,11.60
2022-12-18T13:40:58.476Z,11.75
2022-12-18T13:43:36.225Z,12.25
2022-12-18T13:46:06.548Z,11.73
2022-12-18T13:48:41.387Z,13.35
2022-12-18T13:51:13.248Z,11.82
2022-12-18T13:53:47.066Z,12.50
2022-12-18T13:56:17.595Z,11.23
2022-12-18T13:58:50.563Z,12.48
2022-12-18T14:01:26.609Z,12.20
2022-12-18T14:04:10.635Z,12.50
2022-12-18T14:06:38.093Z,12.00
2022-12-18T14:09:06.936Z,12.20
2022-12-18T14:11:39.202Z,12.68
2022-12-18T14:14:09.076Z,11.65
2022-12-18T14:16:36.825Z,12.55
2022-12-18T14:21:42.588Z,12.27
2022-12-18T14:24:30.227Z,12.23
2022-12-18T14:27:17.434Z,12.80
2022-12-18T14:29:45.142Z,13.77
2022-12-18T14:34:48.226Z,13.52
2022-12-18T14:37:18.512Z,13.68
2022-12-18T14:39:58.826Z,13.20
2022-12-18T14:42:29.341Z,12.35
2022-12-18T14:45:15.972Z,13.57
2022-12-18T14:47:47.299Z,13.82
2022-12-18T14:50:15.682Z,12.80
2022-12-18T14:52:43.113Z,13.35
2022-12-18T14:55:17.664Z,13.23
2022-12-18T14:57:46.205Z,13.75
2022-12-18T15:02:41.097Z,12.43
2022-12-18T15:07:47.157Z,14.00
2022-12-18T15:10:16.480Z,13.40
2022-12-18T15:12:45.998Z,13.30
2022-12-18T15:15:32.090Z,13.30
2022-12-18T15:17:59.701Z,14.45
2022-12-18T15:20:27.375Z,14.05
2022-12-18T15:22:57.819Z,13.35
2022-12-18T15:25:29.537Z,14.15
2022-12-18T15:27:58.511Z,13.35
2022-12-18T15:30:28.905Z,13.02
2022-12-18T15:33:13.364Z,13.35
2022-12-18T15:35:46.655Z,12.52
2022-12-18T15:38:14.559Z,13.13
2022-12-18T15:40:43.859Z,15.77
2022-12-18T15:43:30.179Z,14.88
2022-12-18T15:45:57.870Z,13.15
2022-12-18T15:48:25.414Z,14.05
2022-12-18T15:50:56.379Z,14.95
2022-12-18T15:53:25.790Z,14.68
2022-12-18T15:56:11.101Z,14.15
2022-12-18T15:58:39.979Z,13.38
2022-12-18T16:01:10.778Z,13.88
2022-12-18T16:03:38.806Z,13.98
2022-12-18T16:06:07.046Z,14.88
2022-12-18T16:11:01.876Z,14.55
2022-12-18T16:13:30.350Z,14.10
2022-12-18T16:16:01.575Z,14.32
2022-12-18T16:18:31.175Z,14.57
2022-12-18T16:20:58.775Z,15.73
2022-12-18T16:23:27.439Z,14.40
2022-12-18T16:25:57.110Z,16.15
2022-12-18T16:28:24.744Z,14.93
2022-12-18T16:30:53.499Z,14.60
2022-12-18T16:33:27.972Z,15.50
2022-12-18T16:35:58.343Z,15.80
2022-12-18T16:38:30.775Z,15.73
2022-12-18T16:41:18.050Z,16.05
2022-12-18T16:43:48.937Z,19.83
2022-12-18T16:46:23.520Z,38.28
2022-12-18T16:48:52.544Z,50.22
2022-12-18T16:51:22.809Z,45.10
2022-12-18T16:53:50.413Z,42.83
2022-12-18T16:56:17.907Z,38.55
2022-12-18T16:58:45.454Z,33.00
2022-12-18T17:01:16.435Z,32.95
2022-12-18T17:03:44.675Z,29.05
2022-12-18T17:06:20.581Z,28.83
2022-12-18T17:08:48.038Z,24.23
2022-12-18T17:11:17.399Z,23.70
2022-12-18T17:13:47.427Z,20.38
2022-12-18T17:16:15.153Z,16.33
2022-12-18T17:21:18.720Z,15.32
2022-12-18T17:23:49.638Z,17.67
2022-12-18T17:26:20.713Z,18.42
2022-12-18T17:28:48.211Z,17.48
2022-12-18T17:31:19.070Z,16.55
2022-12-18T17:33:48.860Z,17.00
2022-12-18T17:36:16.583Z,16.67
2022-12-18T17:38:44.756Z,17.15
2022-12-18T17:41:18.021Z,17.35
2022-12-18T17:43:45.925Z,18.27
2022-12-18T17:46:14.261Z,16.25
2022-12-18T17:48:42.249Z,16.55
2022-12-18T17:51:14.781Z,16.83
2022-12-18T17:53:42.548Z,16.75
2022-12-18T17:56:15.392Z,18.05
2022-12-18T17:58:43.244Z,17.00
2022-12-18T18:03:47.061Z,16.45
2022-12-18T18:06:19.221Z,16.70
2022-12-18T18:08:46.747Z,15.65
2022-12-18T18:11:34.299Z,17.55
2022-12-18T18:14:02.449Z,16.52
2022-12-18T18:16:31.087Z,16.77
2022-12-18T18:18:59.487Z,17.58
2022-12-18T18:21:27.216Z,16.75
2022-12-18T18:23:57.288Z,18.23
2022-12-18T18:26:29.100Z,17.15
2022-12-18T18:29:04.809Z,16.55
2022-12-18T18:31:40.874Z,17.60
2022-12-18T18:34:12.451Z,20.08
2022-12-18T18:36:39.994Z,17.40
2022-12-18T18:39:09.057Z,15.70
2022-12-18T18:41:43.853Z,18.55
2022-12-18T18:44:15.213Z,18.85
2022-12-18T18:46:42.697Z,18.48
2022-12-18T18:49:13.741Z,21.23
2022-12-18T18:51:43.931Z,20.63
2022-12-18T18:54:11.407Z,20.02
2022-12-18T18:57:18.709Z,21.45
2022-12-18T18:59:31.582Z,20.58
2022-12-18T19:01:59.886Z,20.35
2022-12-18T19:04:31.541Z,21.13
2022-12-18T19:07:01.243Z,20.25
2022-12-18T19:09:29.360Z,21.45
2022-12-18T19:12:16.125Z,22.30
2022-12-18T19:14:44.543Z,20.00
2022-12-18T19:17:14.757Z,20.83
2022-12-18T19:19:42.872Z,20.70
2022-12-18T19:22:12.661Z,20.35
2022-12-18T19:24:40.181Z,20.65
2022-12-18T19:27:08.883Z,21.60
2022-12-18T19:29:36.843Z,22.00
2022-12-18T19:32:08.393Z,20.25
2022-12-18T19:34:35.926Z,21.23
2022-12-18T19:37:03.947Z,20.77
2022-12-18T19:39:31.727Z,21.02
2022-12-18T19:41:59.202Z,21.20
2022-12-18T19:44:39.831Z,20.50
2022-12-18T19:47:07.389Z,18.85
2022-12-18T19:49:34.920Z,21.95
2022-12-18T19:52:03.546Z,21.25
2022-12-18T19:54:31.213Z,20.98
2022-12-18T19:56:58.578Z,21.98
2022-12-18T19:59:33.208Z,21.13
2022-12-18T20:02:04.744Z,21.83
2022-12-18T20:04:32.556Z,21.02
2022-12-18T20:07:01.722Z,19.52
2022-12-18T20:09:29.164Z,21.63
2022-12-18T20:11:59.351Z,22.05
2022-12-18T20:14:26.758Z,20.13
2022-12-18T20:16:55.971Z,20.75
2022-12-18T20:19:25.119Z,22.05
2022-12-18T20:21:52.739Z,20.85
2022-12-18T20:24:20.627Z,21.25
2022-12-18T20:29:16.902Z,19.58
2022-12-18T20:31:47.284Z,19.63
2022-12-18T20:34:14.977Z,19.77
2022-12-18T20:36:47.275Z,20.23
2022-12-18T20:39:16.169Z,19.20
2022-12-18T20:41:45.555Z,20.90
2022-12-18T20:44:23.615Z,19.40
2022-12-18T20:46:51.949Z,18.70
2022-12-18T20:49:24.970Z,19.77
2022-12-18T20:51:54.433Z,21.02
2022-12-18T20:54:22.080Z,19.52
2022-12-18T20:56:49.877Z,19.25
2022-12-18T21:01:49.520Z,19.10
2022-12-18T21:04:18.433Z,18.73
2022-12-18T21:06:51.274Z,19.55
2022-12-18T21:09:27.700Z,19.58
2022-12-18T21:12:16.009Z,20.77
2022-12-18T21:14:50.693Z,21.60
2022-12-18T21:17:18.422Z,19.63
2022-12-18T21:19:48.641Z,20.83
2022-12-18T21:22:32.618Z,20.83
2022-12-18T21:25:01.428Z,20.85
2022-12-18T21:27:28.971Z,21.15
2022-12-18T21:30:03.406Z,20.45
2022-12-18T21:32:31.932Z,20.55
2022-12-18T21:35:01.169Z,22.65
2022-12-18T21:37:28.534Z,24.40
2022-12-18T21:39:55.887Z,22.67
2022-12-18T21:42:41.966Z,21.52
2022-12-18T21:45:09.677Z,23.25
2022-12-18T21:47:37.021Z,23.35
2022-12-18T21:50:04.793Z,20.60
2022-12-18T21:55:07.903Z,23.27
2022-12-18T21:57:38.150Z,22.20
2022-12-18T22:00:06.078Z,23.25
2022-12-18T22:02:39.886Z,22.65
2022-12-18T22:05:07.717Z,23.63
2022-12-18T22:07:35.044Z,23.27
2022-12-18T22:10:02.485Z,21.98
2022-12-18T22:12:44.123Z,22.15
2022-12-18T22:15:18.313Z,20.58
2022-12-18T22:17:49.683Z,20.20
2022-12-18T22:20:17.189Z,20.85
2022-12-18T22:22:44.538Z,21.73
2022-12-18T22:25:12.349Z,21.25
2022-12-18T22:30:06.634Z,20.05
2022-12-18T22:32:35.873Z,21.35
2022-12-18T22:35:08.344Z,21.23
2022-12-18T22:37:37.106Z,21.88
2022-12-18T22:42:37.815Z,21.05
2022-12-18T22:45:05.571Z,21.92
2022-12-18T22:47:33.027Z,20.98
2022-12-18T22:50:01.824Z,19.08
2022-12-18T22:52:29.267Z,21.58
2022-12-18T22:54:56.896Z,19.67
2022-12-18T22:57:24.955Z,21.52
2022-12-18T22:59:52.870Z,23.33
2022-12-18T23:02:20.815Z,22.05
2022-12-18T23:04:48.586Z,22.90
2022-12-18T23:07:19.418Z,21.63
2022-12-18T23:09:47.108Z,23.33
2022-12-18T23:12:20.425Z,22.45
2022-12-18T23:14:51.254Z,22.67
2022-12-18T23:17:19.931Z,20.92
2022-12-18T23:19:49.334Z,21.73
2022-12-18T23:22:18.378Z,22.38
2022-12-18T23:24:45.856Z,22.85
2022-12-18T23:27:13.499Z,21.95
2022-12-18T23:29:41.266Z,23.05
2022-12-18T23:34:43.990Z,22.30
2022-12-18T23:37:11.346Z,21.83
2022-12-18T23:39:42.217Z,22.50
2022-12-18T23:42:09.689Z,23.15
2022-12-18T23:44:38.168Z,23.17
2022-12-18T23:47:06.965Z,22.75
2022-12-18T23:49:35.546Z,22.92
2022-12-18T23:52:03.121Z,22.48
2022-12-18T23:54:33.401Z,23.65
2022-12-18T23:57:02.518Z,23.30
2022-12-18T23:59:29.867Z,23.42
